KAWO

Arlington Municipal Airport

Arlington, Washington, USA
METAR KAWO 151556Z AUTO 10006KT 10SM OVC027 06/03 A3004 RMK AO2 SLP179 T00610028
Observed Flight Rules
Dec-15 @ 15:56 UTC (21 minutes ago) Marginal Visual Flight Rules
Wind Visibility Clouds
100° at 6 knots 10 miles
  • Overcast at 2,700' AGL
Temperatures Readings
Current 6°C / 43°F
Dewpoint 3°C / 37°F
Humidity 81%
Altimeter 30.04" Hg
Pressure 1017.9 hPa
Elevation 42
METAR KAWO 151556Z AUTO 10006KT 10SM OVC027 06/03 A3004 RMK AO2 SLP179 T00610028
Observed Flight Rules
Dec-15 @ 15:56 UTC
(21 minutes ago)
MVFR
Wind Visibility
100° at 6 knots 10 miles
Clouds
  • Overcast at 2,700' AGL
Temperature Dewpoint
6°C / 43°F 3°C / 37°F
Humidity Altimeter Pressure
81% 30.04" Hg 1017.9 hPa